sensor_id;sensor_type;location;lat;lon;timestamp;pressure;altitude;pressure_sealevel;temperature;humidity
75913;BME280;64592;52.168;21.040;2024-02-16T00:00:36;100985.72;;;7.13;100.00
75913;BME280;64592;52.168;21.040;2024-02-16T00:05:37;100996.34;;;7.14;100.00
75913;BME280;64592;52.168;21.040;2024-02-16T00:10:39;100991.00;;;7.14;100.00
75913;BME280;64592;52.168;21.040;2024-02-16T00:15:42;100988.31;;;7.14;100.00
75913;BME280;64592;52.168;21.040;2024-02-16T00:20:44;100989.19;;;7.15;100.00
75913;BME280;64592;52.168;21.040;2024-02-16T00:25:46;100992.66;;;7.17;100.00
75913;BME280;64592;52.168;21.040;2024-02-16T00:30:49;100997.16;;;7.16;100.00
75913;BME280;64592;52.168;21.040;2024-02-16T00:35:51;100999.84;;;7.16;100.00
75913;BME280;64592;52.168;21.040;2024-02-16T00:40:53;100998.09;;;7.15;100.00
75913;BME280;64592;52.168;21.040;2024-02-16T00:45:56;100985.63;;;7.14;100.00
75913;BME280;64592;52.168;21.040;2024-02-16T00:50:58;100986.44;;;7.16;100.00
75913;BME280;64592;52.168;21.040;2024-02-16T00:55:59;100973.09;;;7.15;100.00
75913;BME280;64592;52.168;21.040;2024-02-16T01:01:03;100983.81;;;7.15;100.00
75913;BME280;64592;52.168;21.040;2024-02-16T01:06:07;100973.25;;;7.12;100.00
75913;BME280;64592;52.168;21.040;2024-02-16T01:11:10;100969.78;;;7.10;100.00
75913;BME280;64592;52.168;21.040;2024-02-16T01:16:13;100966.31;;;7.08;100.00
75913;BME280;64592;52.168;21.040;2024-02-16T01:21:15;100958.53;;;7.03;100.00
75913;BME280;64592;52.168;21.040;2024-02-16T01:26:17;100955.19;;;6.98;100.00
75913;BME280;64592;52.168;21.040;2024-02-16T01:31:20;100950.00;;;6.95;100.00
75913;BME280;64592;52.168;21.040;2024-02-16T01:36:21;100942.28;;;6.89;100.00
75913;BME280;64592;52.168;21.040;2024-02-16T01:41:23;100937.88;;;6.88;100.00
75913;BME280;64592;52.168;21.040;2024-02-16T01:46:26;100939.69;;;6.87;100.00
75913;BME280;64592;52.168;21.040;2024-02-16T01:51:28;100935.47;;;6.82;100.00
75913;BME280;64592;52.168;21.040;2024-02-16T01:56:30;100929.56;;;6.75;100.00
75913;BME280;64592;52.168;21.040;2024-02-16T02:01:33;100937.78;;;6.72;100.00
75913;BME280;64592;52.168;21.040;2024-02-16T02:06:35;100929.00;;;6.69;100.00
75913;BME280;64592;52.168;21.040;2024-02-16T02:11:39;100947.06;;;6.65;100.00
75913;BME280;64592;52.168;21.040;2024-02-16T02:16:42;100932.88;;;6.63;100.00
75913;BME280;64592;52.168;21.040;2024-02-16T02:21:43;100929.44;;;6.59;100.00
75913;BME280;64592;52.168;21.040;2024-02-16T02:26:46;100931.44;;;6.56;100.00
75913;BME280;64592;52.168;21.040;2024-02-16T02:31:48;100927.19;;;6.52;100.00
75913;BME280;64592;52.168;21.040;2024-02-16T02:36:50;100916.69;;;6.47;100.00
75913;BME280;64592;52.168;21.040;2024-02-16T02:41:53;100926.53;;;6.47;100.00
75913;BME280;64592;52.168;21.040;2024-02-16T02:46:54;100919.66;;;6.41;100.00
75913;BME280;64592;52.168;21.040;2024-02-16T02:51:56;100927.84;;;6.38;100.00
75913;BME280;64592;52.168;21.040;2024-02-16T02:56:59;100922.59;;;6.37;100.00
75913;BME280;64592;52.168;21.040;2024-02-16T03:02:01;100921.78;;;6.35;100.00
75913;BME280;64592;52.168;21.040;2024-02-16T03:07:02;100916.56;;;6.32;100.00
75913;BME280;64592;52.168;21.040;2024-02-16T03:12:06;100924.91;;;6.26;100.00
75913;BME280;64592;52.168;21.040;2024-02-16T03:17:08;100923.22;;;6.23;100.00
75913;BME280;64592;52.168;21.040;2024-02-16T03:22:10;100932.38;;;6.19;100.00
75913;BME280;64592;52.168;21.040;2024-02-16T03:27:14;100936.84;;;6.18;100.00
75913;BME280;64592;52.168;21.040;2024-02-16T03:32:16;100935.28;;;6.14;100.00
75913;BME280;64592;52.168;21.040;2024-02-16T03:37:17;100933.66;;;6.10;100.00
75913;BME280;64592;52.168;21.040;2024-02-16T03:42:20;100942.81;;;6.06;100.00
75913;BME280;64592;52.168;21.040;2024-02-16T03:47:22;100936.72;;;6.03;100.00
75913;BME280;64592;52.168;21.040;2024-02-16T03:52:24;100926.16;;;6.00;100.00
75913;BME280;64592;52.168;21.040;2024-02-16T03:57:27;100925.44;;;5.96;100.00
75913;BME280;64592;52.168;21.040;2024-02-16T04:02:29;100931.06;;;5.90;100.00
75913;BME280;64592;52.168;21.040;2024-02-16T04:07:31;100929.53;;;5.84;100.00
75913;BME280;64592;52.168;21.040;2024-02-16T04:12:34;100927.34;;;5.74;100.00
75913;BME280;64592;52.168;21.040;2024-02-16T04:17:36;100927.28;;;5.75;100.00
75913;BME280;64592;52.168;21.040;2024-02-16T04:22:38;100934.56;;;5.72;100.00
75913;BME280;64592;52.168;21.040;2024-02-16T04:27:41;100932.91;;;5.69;100.00
75913;BME280;64592;52.168;21.040;2024-02-16T04:32:43;100933.09;;;5.65;100.00
75913;BME280;64592;52.168;21.040;2024-02-16T04:37:44;100927.41;;;5.54;100.00
75913;BME280;64592;52.168;21.040;2024-02-16T04:42:47;100936.06;;;5.59;100.00
75913;BME280;64592;52.168;21.040;2024-02-16T04:47:49;100932.59;;;5.57;100.00
75913;BME280;64592;52.168;21.040;2024-02-16T04:52:51;100933.69;;;5.53;100.00
75913;BME280;64592;52.168;21.040;2024-02-16T04:57:54;100934.75;;;5.48;100.00
75913;BME280;64592;52.168;21.040;2024-02-16T05:02:56;100928.91;;;5.40;100.00
75913;BME280;64592;52.168;21.040;2024-02-16T05:07:57;100929.03;;;5.37;100.00
75913;BME280;64592;52.168;21.040;2024-02-16T05:13:00;100920.19;;;5.35;100.00
75913;BME280;64592;52.168;21.040;2024-02-16T05:18:02;100921.28;;;5.31;100.00
75913;BME280;64592;52.168;21.040;2024-02-16T05:23:04;100923.97;;;5.31;100.00
75913;BME280;64592;52.168;21.040;2024-02-16T05:28:07;100913.44;;;5.27;100.00
75913;BME280;64592;52.168;21.040;2024-02-16T05:33:09;100923.44;;;5.23;100.00
75913;BME280;64592;52.168;21.040;2024-02-16T05:38:13;100926.03;;;5.25;100.00
75913;BME280;64592;52.168;21.040;2024-02-16T05:43:33;100919.22;;;5.18;100.00
75913;BME280;64592;52.168;21.040;2024-02-16T05:48:35;100938.00;;;5.16;100.00
75913;BME280;64592;52.168;21.040;2024-02-16T05:53:39;100936.25;;;5.15;100.00
75913;BME280;64592;52.168;21.040;2024-02-16T05:58:42;100939.91;;;5.13;100.00
75913;BME280;64592;52.168;21.040;2024-02-16T06:03:44;100935.38;;;5.15;100.00
75913;BME280;64592;52.168;21.040;2024-02-16T06:08:46;100940.72;;;5.15;100.00
75913;BME280;64592;52.168;21.040;2024-02-16T06:13:49;100947.94;;;5.13;100.00
75913;BME280;64592;52.168;21.040;2024-02-16T06:18:51;100953.38;;;5.11;100.00
75913;BME280;64592;52.168;21.040;2024-02-16T06:23:52;100956.03;;;5.11;100.00
75913;BME280;64592;52.168;21.040;2024-02-16T06:28:55;100964.13;;;5.10;100.00
75913;BME280;64592;52.168;21.040;2024-02-16T06:33:58;100962.38;;;5.08;100.00
75913;BME280;64592;52.168;21.040;2024-02-16T06:39:00;100974.81;;;5.10;100.00
75913;BME280;64592;52.168;21.040;2024-02-16T06:44:04;100972.06;;;5.11;100.00
75913;BME280;64592;52.168;21.040;2024-02-16T06:49:05;100981.75;;;5.14;100.00
75913;BME280;64592;52.168;21.040;2024-02-16T06:54:07;100986.97;;;5.17;100.00
75913;BME280;64592;52.168;21.040;2024-02-16T06:59:10;100982.34;;;5.20;100.00
75913;BME280;64592;52.168;21.040;2024-02-16T07:04:12;100990.25;;;5.23;100.00
75913;BME280;64592;52.168;21.040;2024-02-16T07:09:14;100984.56;;;5.31;100.00
75913;BME280;64592;52.168;21.040;2024-02-16T07:14:17;100979.94;;;5.34;100.00
75913;BME280;64592;52.168;21.040;2024-02-16T07:19:19;100985.81;;;5.42;100.00
75913;BME280;64592;52.168;21.040;2024-02-16T07:24:21;100989.03;;;5.51;100.00
75913;BME280;64592;52.168;21.040;2024-02-16T07:29:24;100995.84;;;5.58;100.00
75913;BME280;64592;52.168;21.040;2024-02-16T07:34:25;100994.63;;;5.65;100.00
75913;BME280;64592;52.168;21.040;2024-02-16T07:39:28;100997.97;;;5.70;100.00
75913;BME280;64592;52.168;21.040;2024-02-16T07:44:31;100988.81;;;5.75;100.00
75913;BME280;64592;52.168;21.040;2024-02-16T07:49:32;100992.94;;;5.82;100.00
75913;BME280;64592;52.168;21.040;2024-02-16T07:54:34;100993.41;;;5.92;100.00
75913;BME280;64592;52.168;21.040;2024-02-16T07:59:37;100997.38;;;6.02;100.00
75913;BME280;64592;52.168;21.040;2024-02-16T08:04:40;101008.59;;;6.10;100.00
75913;BME280;64592;52.168;21.040;2024-02-16T08:09:43;101004.56;;;6.20;100.00
75913;BME280;64592;52.168;21.040;2024-02-16T08:14:46;100998.78;;;6.30;100.00
75913;BME280;64592;52.168;21.040;2024-02-16T08:19:51;100999.28;;;6.38;100.00
75913;BME280;64592;52.168;21.040;2024-02-16T08:24:54;100991.66;;;6.47;100.00
75913;BME280;64592;52.168;21.040;2024-02-16T08:29:57;100998.41;;;6.56;100.00
75913;BME280;64592;52.168;21.040;2024-02-16T08:34:58;100994.41;;;6.65;100.00
75913;BME280;64592;52.168;21.040;2024-02-16T08:40:00;100989.47;;;6.74;100.00
75913;BME280;64592;52.168;21.040;2024-02-16T08:45:06;100987.13;;;6.85;100.00
75913;BME280;64592;52.168;21.040;2024-02-16T08:50:08;100984.78;;;6.96;100.00
75913;BME280;64592;52.168;21.040;2024-02-16T08:55:11;100992.25;;;7.07;100.00
75913;BME280;64592;52.168;21.040;2024-02-16T09:00:15;100987.13;;;7.20;100.00
75913;BME280;64592;52.168;21.040;2024-02-16T09:05:17;100986.50;;;7.32;100.00
75913;BME280;64592;52.168;21.040;2024-02-16T09:10:19;100982.38;;;7.42;100.00
75913;BME280;64592;52.168;21.040;2024-02-16T09:15:22;100971.19;;;7.51;100.00
75913;BME280;64592;52.168;21.040;2024-02-16T09:20:24;100975.88;;;7.63;100.00
75913;BME280;64592;52.168;21.040;2024-02-16T09:25:26;100972.63;;;7.74;100.00
75913;BME280;64592;52.168;21.040;2024-02-16T09:30:29;100973.88;;;7.84;100.00
75913;BME280;64592;52.168;21.040;2024-02-16T09:35:30;100969.03;;;7.91;100.00
75913;BME280;64592;52.168;21.040;2024-02-16T09:40:32;100967.69;;;7.99;100.00
75913;BME280;64592;52.168;21.040;2024-02-16T09:45:35;100959.97;;;8.09;100.00
75913;BME280;64592;52.168;21.040;2024-02-16T09:50:37;100955.13;;;8.15;100.00
75913;BME280;64592;52.168;21.040;2024-02-16T09:55:39;100965.28;;;8.26;100.00
75913;BME280;64592;52.168;21.040;2024-02-16T10:00:47;100961.16;;;8.36;100.00
75913;BME280;64592;52.168;21.040;2024-02-16T10:05:50;100953.69;;;8.41;100.00
75913;BME280;64592;52.168;21.040;2024-02-16T10:11:00;100946.94;;;8.50;100.00
75913;BME280;64592;52.168;21.040;2024-02-16T10:16:07;100946.50;;;8.57;100.00
75913;BME280;64592;52.168;21.040;2024-02-16T10:21:10;100945.97;;;8.67;100.00
75913;BME280;64592;52.168;21.040;2024-02-16T10:26:11;100944.47;;;8.77;100.00
75913;BME280;64592;52.168;21.040;2024-02-16T10:31:15;100934.03;;;8.86;100.00
75913;BME280;64592;52.168;21.040;2024-02-16T10:36:17;100921.78;;;8.97;100.00
75913;BME280;64592;52.168;21.040;2024-02-16T10:41:20;100923.81;;;9.07;100.00
75913;BME280;64592;52.168;21.040;2024-02-16T10:46:24;100914.13;;;9.19;100.00
75913;BME280;64592;52.168;21.040;2024-02-16T10:51:30;100906.28;;;9.30;100.00
75913;BME280;64592;52.168;21.040;2024-02-16T10:56:35;100897.56;;;9.41;100.00
75913;BME280;64592;52.168;21.040;2024-02-16T11:01:39;100893.31;;;9.51;100.00
75913;BME280;64592;52.168;21.040;2024-02-16T11:06:47;100882.84;;;9.60;100.00
75913;BME280;64592;52.168;21.040;2024-02-16T11:11:52;100879.09;;;9.77;100.00
75913;BME280;64592;52.168;21.040;2024-02-16T11:16:55;100872.94;;;9.89;100.00
75913;BME280;64592;52.168;21.040;2024-02-16T11:21:57;100866.34;;;10.07;100.00
75913;BME280;64592;52.168;21.040;2024-02-16T11:27:01;100855.25;;;10.26;100.00
75913;BME280;64592;52.168;21.040;2024-02-16T11:32:06;100846.50;;;10.49;100.00
75913;BME280;64592;52.168;21.040;2024-02-16T11:37:08;100838.16;;;10.67;99.37
75913;BME280;64592;52.168;21.040;2024-02-16T11:42:12;100838.59;;;10.86;99.30
75913;BME280;64592;52.168;21.040;2024-02-16T11:47:19;100832.16;;;11.01;98.44
75913;BME280;64592;52.168;21.040;2024-02-16T11:52:25;100829.78;;;11.22;98.32
75913;BME280;64592;52.168;21.040;2024-02-16T11:57:27;100825.34;;;11.46;96.22
75913;BME280;64592;52.168;21.040;2024-02-16T12:02:30;100823.03;;;11.65;95.29
75913;BME280;64592;52.168;21.040;2024-02-16T12:07:32;100820.41;;;11.89;93.14
75913;BME280;64592;52.168;21.040;2024-02-16T12:12:34;100797.69;;;12.04;92.29
75913;BME280;64592;52.168;21.040;2024-02-16T12:17:37;100800.50;;;12.27;91.90
75913;BME280;64592;52.168;21.040;2024-02-16T12:22:39;100789.66;;;12.51;91.03
75913;BME280;64592;52.168;21.040;2024-02-16T12:27:40;100793.97;;;12.88;89.98
75913;BME280;64592;52.168;21.040;2024-02-16T12:32:44;100784.03;;;13.11;86.84
75913;BME280;64592;52.168;21.040;2024-02-16T12:37:45;100786.91;;;13.32;84.37
75913;BME280;64592;52.168;21.040;2024-02-16T12:42:48;100784.06;;;13.55;84.40
75913;BME280;64592;52.168;21.040;2024-02-16T12:47:51;100773.34;;;13.76;82.90
75913;BME280;64592;52.168;21.040;2024-02-16T12:52:52;100772.78;;;13.93;80.75
75913;BME280;64592;52.168;21.040;2024-02-16T12:57:54;100776.34;;;14.05;80.58
75913;BME280;64592;52.168;21.040;2024-02-16T13:02:58;100768.56;;;14.12;80.35
75913;BME280;64592;52.168;21.040;2024-02-16T13:07:59;100768.03;;;14.18;80.60
75913;BME280;64592;52.168;21.040;2024-02-16T13:13:01;100761.63;;;14.19;79.98
75913;BME280;64592;52.168;21.040;2024-02-16T13:18:05;100763.06;;;14.23;78.85
75913;BME280;64592;52.168;21.040;2024-02-16T13:23:06;100749.19;;;14.16;78.56
75913;BME280;64592;52.168;21.040;2024-02-16T13:28:08;100738.25;;;14.07;78.58
75913;BME280;64592;52.168;21.040;2024-02-16T13:33:11;100738.41;;;13.94;79.08
75913;BME280;64592;52.168;21.040;2024-02-16T13:38:13;100739.78;;;13.99;80.12
75913;BME280;64592;52.168;21.040;2024-02-16T13:43:15;100746.47;;;14.16;80.58
75913;BME280;64592;52.168;21.040;2024-02-16T13:48:19;100748.25;;;14.38;78.48
75913;BME280;64592;52.168;21.040;2024-02-16T13:53:22;100746.53;;;14.37;77.73
75913;BME280;64592;52.168;21.040;2024-02-16T13:58:24;100745.03;;;14.44;77.78
75913;BME280;64592;52.168;21.040;2024-02-16T14:03:27;100745.16;;;14.43;76.38
75913;BME280;64592;52.168;21.040;2024-02-16T14:08:28;100744.06;;;14.34;76.60
75913;BME280;64592;52.168;21.040;2024-02-16T14:13:30;100732.31;;;14.13;77.33
75913;BME280;64592;52.168;21.040;2024-02-16T14:18:34;100728.19;;;13.86;77.18
75913;BME280;64592;52.168;21.040;2024-02-16T14:23:35;100719.19;;;13.54;79.51
75913;BME280;64592;52.168;21.040;2024-02-16T14:28:37;100717.97;;;13.36;80.49
75913;BME280;64592;52.168;21.040;2024-02-16T14:33:40;100728.56;;;13.16;80.84
75913;BME280;64592;52.168;21.040;2024-02-16T14:38:43;100717.44;;;12.97;81.85
75913;BME280;64592;52.168;21.040;2024-02-16T14:43:45;100714.59;;;12.76;81.45
75913;BME280;64592;52.168;21.040;2024-02-16T14:48:49;100711.34;;;12.60;81.60
75913;BME280;64592;52.168;21.040;2024-02-16T14:53:52;100702.50;;;12.47;82.59
75913;BME280;64592;52.168;21.040;2024-02-16T14:58:53;100703.78;;;12.30;82.87
75913;BME280;64592;52.168;21.040;2024-02-16T15:03:57;100701.06;;;12.19;83.46
75913;BME280;64592;52.168;21.040;2024-02-16T15:08:59;100692.78;;;12.10;84.04
75913;BME280;64592;52.168;21.040;2024-02-16T15:14:03;100698.50;;;11.94;84.43
75913;BME280;64592;52.168;21.040;2024-02-16T15:19:06;100691.44;;;11.80;84.48
75913;BME280;64592;52.168;21.040;2024-02-16T15:24:08;100693.81;;;11.72;85.30
75913;BME280;64592;52.168;21.040;2024-02-16T15:29:09;100699.28;;;11.59;85.63
75913;BME280;64592;52.168;21.040;2024-02-16T15:34:12;100698.22;;;11.49;85.53
75913;BME280;64592;52.168;21.040;2024-02-16T15:39:16;100695.22;;;11.41;86.07
75913;BME280;64592;52.168;21.040;2024-02-16T15:44:17;100687.81;;;11.32;86.11
75913;BME280;64592;52.168;21.040;2024-02-16T15:49:21;100686.00;;;11.20;87.12
75913;BME280;64592;52.168;21.040;2024-02-16T15:54:23;100691.84;;;11.14;87.63
75913;BME280;64592;52.168;21.040;2024-02-16T15:59:26;100688.09;;;11.04;87.90
75913;BME280;64592;52.168;21.040;2024-02-16T16:04:29;100690.34;;;10.97;88.83
75913;BME280;64592;52.168;21.040;2024-02-16T16:09:31;100684.97;;;10.84;89.43
75913;BME280;64592;52.168;21.040;2024-02-16T16:14:33;100693.41;;;10.80;89.91
75913;BME280;64592;52.168;21.040;2024-02-16T16:19:38;100698.47;;;10.72;90.28
75913;BME280;64592;52.168;21.040;2024-02-16T16:24:39;100693.53;;;10.66;90.93
75913;BME280;64592;52.168;21.040;2024-02-16T16:29:42;100690.50;;;10.58;91.55
75913;BME280;64592;52.168;21.040;2024-02-16T16:34:45;100693.84;;;10.48;91.73
75913;BME280;64592;52.168;21.040;2024-02-16T16:39:47;100696.00;;;10.43;92.03
75913;BME280;64592;52.168;21.040;2024-02-16T16:44:49;100683.06;;;10.36;92.28
75913;BME280;64592;52.168;21.040;2024-02-16T16:49:52;100694.25;;;10.30;92.70
75913;BME280;64592;52.168;21.040;2024-02-16T16:54:54;100708.03;;;10.25;92.84
75913;BME280;64592;52.168;21.040;2024-02-16T16:59:55;100704.03;;;10.18;92.93
75913;BME280;64592;52.168;21.040;2024-02-16T17:04:59;100692.88;;;10.10;93.91
75913;BME280;64592;52.168;21.040;2024-02-16T17:10:01;100686.84;;;10.06;93.85
75913;BME280;64592;52.168;21.040;2024-02-16T17:15:04;100688.22;;;9.99;94.37
75913;BME280;64592;52.168;21.040;2024-02-16T17:20:09;100690.47;;;9.93;94.55
75913;BME280;64592;52.168;21.040;2024-02-16T17:25:11;100691.53;;;9.90;94.65
75913;BME280;64592;52.168;21.040;2024-02-16T17:30:13;100701.00;;;9.83;95.98
75913;BME280;64592;52.168;21.040;2024-02-16T17:35:20;100699.25;;;9.82;96.25
75913;BME280;64592;52.168;21.040;2024-02-16T17:40:22;100706.78;;;9.77;96.59
75913;BME280;64592;52.168;21.040;2024-02-16T17:45:24;100696.63;;;9.68;97.37
75913;BME280;64592;52.168;21.040;2024-02-16T17:50:27;100703.06;;;9.65;98.41
75913;BME280;64592;52.168;21.040;2024-02-16T17:55:28;100706.84;;;9.63;98.63
75913;BME280;64592;52.168;21.040;2024-02-16T18:00:30;100706.06;;;9.61;99.04
75913;BME280;64592;52.168;21.040;2024-02-16T18:05:33;100711.56;;;9.59;99.40
75913;BME280;64592;52.168;21.040;2024-02-16T18:10:35;100709.06;;;9.56;99.98
75913;BME280;64592;52.168;21.040;2024-02-16T18:15:36;100706.66;;;9.52;100.00
75913;BME280;64592;52.168;21.040;2024-02-16T18:20:39;100712.25;;;9.49;100.00
75913;BME280;64592;52.168;21.040;2024-02-16T18:25:42;100709.88;;;9.44;100.00
75913;BME280;64592;52.168;21.040;2024-02-16T18:30:43;100719.97;;;9.41;100.00
75913;BME280;64592;52.168;21.040;2024-02-16T18:35:46;100709.50;;;9.36;100.00
75913;BME280;64592;52.168;21.040;2024-02-16T18:40:48;100707.03;;;9.33;100.00
75913;BME280;64592;52.168;21.040;2024-02-16T18:45:49;100706.34;;;9.29;100.00
75913;BME280;64592;52.168;21.040;2024-02-16T18:50:52;100702.88;;;9.27;100.00
75913;BME280;64592;52.168;21.040;2024-02-16T18:55:54;100698.66;;;9.23;100.00
75913;BME280;64592;52.168;21.040;2024-02-16T19:00:57;100705.19;;;9.19;100.00
75913;BME280;64592;52.168;21.040;2024-02-16T19:06:00;100708.97;;;9.17;100.00
75913;BME280;64592;52.168;21.040;2024-02-16T19:11:02;100704.72;;;9.13;100.00
75913;BME280;64592;52.168;21.040;2024-02-16T19:16:05;100693.31;;;9.09;100.00
75913;BME280;64592;52.168;21.040;2024-02-16T19:21:08;100711.38;;;9.07;100.00
75913;BME280;64592;52.168;21.040;2024-02-16T19:26:09;100701.88;;;9.02;100.00
75913;BME280;64592;52.168;21.040;2024-02-16T19:31:11;100699.47;;;8.97;100.00
75913;BME280;64592;52.168;21.040;2024-02-16T19:36:15;100696.97;;;8.94;100.00
75913;BME280;64592;52.168;21.040;2024-02-16T19:41:17;100697.38;;;8.88;100.00
75913;BME280;64592;52.168;21.040;2024-02-16T19:46:18;100698.50;;;8.84;100.00
75913;BME280;64592;52.168;21.040;2024-02-16T19:51:21;100698.91;;;8.78;100.00
75913;BME280;64592;52.168;21.040;2024-02-16T19:56:23;100694.78;;;8.72;100.00
75913;BME280;64592;52.168;21.040;2024-02-16T20:01:25;100689.09;;;8.63;100.00
75913;BME280;64592;52.168;21.040;2024-02-16T20:06:28;100692.56;;;8.65;100.00
75913;BME280;64592;52.168;21.040;2024-02-16T20:11:29;100687.56;;;8.59;100.00
75913;BME280;64592;52.168;21.040;2024-02-16T20:16:31;100705.69;;;8.55;100.00
75913;BME280;64592;52.168;21.040;2024-02-16T20:21:36;100707.72;;;8.51;100.00
75913;BME280;64592;52.168;21.040;2024-02-16T20:26:38;100703.56;;;8.46;100.00
75913;BME280;64592;52.168;21.040;2024-02-16T20:31:41;100693.97;;;8.42;100.00
75913;BME280;64592;52.168;21.040;2024-02-16T20:36:44;100689.84;;;8.36;100.00
75913;BME280;64592;52.168;21.040;2024-02-16T20:41:49;100687.25;;;8.35;100.00
75913;BME280;64592;52.168;21.040;2024-02-16T20:46:51;100685.69;;;8.31;100.00
75913;BME280;64592;52.168;21.040;2024-02-16T20:51:54;100677.03;;;8.26;100.00
75913;BME280;64592;52.168;21.040;2024-02-16T20:56:56;100678.28;;;8.20;100.00
75913;BME280;64592;52.168;21.040;2024-02-16T21:01:58;100676.84;;;8.14;100.00
75913;BME280;64592;52.168;21.040;2024-02-16T21:07:01;100667.31;;;8.09;100.00
75913;BME280;64592;52.168;21.040;2024-02-16T21:12:03;100658.66;;;8.04;100.00
75913;BME280;64592;52.168;21.040;2024-02-16T21:17:05;100657.03;;;8.01;100.00
75913;BME280;64592;52.168;21.040;2024-02-16T21:22:08;100657.22;;;7.98;100.00
75913;BME280;64592;52.168;21.040;2024-02-16T21:27:10;100656.72;;;7.92;100.00
75913;BME280;64592;52.168;21.040;2024-02-16T21:32:12;100652.56;;;7.86;100.00
75913;BME280;64592;52.168;21.040;2024-02-16T21:37:15;100658.06;;;7.85;100.00
75913;BME280;64592;52.168;21.040;2024-02-16T21:42:17;100656.41;;;7.82;100.00
75913;BME280;64592;52.168;21.040;2024-02-16T21:47:19;100647.84;;;7.75;100.00
75913;BME280;64592;52.168;21.040;2024-02-16T21:52:22;100652.28;;;7.76;100.00
75913;BME280;64592;52.168;21.040;2024-02-16T21:57:24;100641.69;;;7.73;100.00
75913;BME280;64592;52.168;21.040;2024-02-16T22:02:25;100648.22;;;7.69;100.00
75913;BME280;64592;52.168;21.040;2024-02-16T22:07:29;100641.91;;;7.70;100.00
75913;BME280;64592;52.168;21.040;2024-02-16T22:12:30;100641.28;;;7.65;100.00
75913;BME280;64592;52.168;21.040;2024-02-16T22:17:32;100643.31;;;7.62;100.00
75913;BME280;64592;52.168;21.040;2024-02-16T22:22:35;100632.81;;;7.57;100.00
75913;BME280;64592;52.168;21.040;2024-02-16T22:27:36;100643.75;;;7.54;100.00
75913;BME280;64592;52.168;21.040;2024-02-16T22:32:38;100642.28;;;7.49;100.00
75913;BME280;64592;52.168;21.040;2024-02-16T22:37:41;100640.81;;;7.43;100.00
75913;BME280;64592;52.168;21.040;2024-02-16T22:42:43;100641.88;;;7.40;100.00
75913;BME280;64592;52.168;21.040;2024-02-16T22:47:46;100639.44;;;7.36;100.00
75913;BME280;64592;52.168;21.040;2024-02-16T22:52:49;100636.75;;;7.36;100.00
75913;BME280;64592;52.168;21.040;2024-02-16T22:57:53;100629.06;;;7.30;100.00
75913;BME280;64592;52.168;21.040;2024-02-16T23:02:54;100616.81;;;7.26;100.00
75913;BME280;64592;52.168;21.040;2024-02-16T23:07:58;100613.34;;;7.24;100.00
75913;BME280;64592;52.168;21.040;2024-02-16T23:13:00;100613.59;;;7.19;100.00
75913;BME280;64592;52.168;21.040;2024-02-16T23:18:03;100613.88;;;7.15;100.00
75913;BME280;64592;52.168;21.040;2024-02-16T23:23:09;100609.72;;;7.09;100.00
75913;BME280;64592;52.168;21.040;2024-02-16T23:28:11;100604.28;;;7.11;100.00
75913;BME280;64592;52.168;21.040;2024-02-16T23:33:14;100600.03;;;7.07;100.00
75913;BME280;64592;52.168;21.040;2024-02-16T23:38:18;100603.06;;;7.00;100.00
75913;BME280;64592;52.168;21.040;2024-02-16T23:43:20;100604.22;;;6.96;100.00
75913;BME280;64592;52.168;21.040;2024-02-16T23:48:22;100598.13;;;6.93;100.00
75913;BME280;64592;52.168;21.040;2024-02-16T23:53:25;100592.88;;;6.91;100.00
75913;BME280;64592;52.168;21.040;2024-02-16T23:58:27;100588.44;;;6.90;100.00
